Confresa, Brazil
Current Conditions -  °F | °C
As of 11:00 AM on Monday 22 Dec 2014 (Local Time) from SBPJ Reporting Station
Light Rain Light Rain  
Wind Chill: 79°   Ceiling: Unl
Heat Index: 82°   Visibility: 6mi
Dew Point: 72°   Wind: 12mph
Humidity: 78%   Direction: 180°S
Pressure: 29.94"   Gusts: NA
Location:  10.64°S, 51.57°W
Report Text: SBPJ 221400Z 18010KT 9999 -RA FEW020 FEW035TCU 26/22 Q1014
Loading
Personal Weather Stations






























Interactive Weather Map New forecast layout! Learn more

10-Day Weather Forecast

Advertisements
Track Severe Weather on mobile